createdAt,value
2022-10-09T00:01:33.245Z,99467.88
2022-10-09T00:04:00.384Z,99458.41
2022-10-09T00:06:27.539Z,99462.75
2022-10-09T00:08:54.593Z,99468.81
2022-10-09T00:11:21.995Z,99466.31
2022-10-09T00:13:49.054Z,99467.13
2022-10-09T00:16:16.187Z,99468.81
2022-10-09T00:18:43.357Z,99469.81
2022-10-09T00:21:10.463Z,99461.09
2022-10-09T00:23:37.528Z,99460.34
2022-10-09T00:26:04.622Z,99464.59
2022-10-09T00:28:35.298Z,99460.28
2022-10-09T00:31:04.985Z,99468.16
2022-10-09T00:33:32.110Z,99466.38
2022-10-09T00:35:59.183Z,99465.53
2022-10-09T00:38:26.292Z,99465.53
2022-10-09T00:40:53.351Z,99462.94
2022-10-09T00:43:20.409Z,99461.28
2022-10-09T00:45:47.505Z,99453.53
2022-10-09T00:48:14.639Z,99454.41
2022-10-09T00:50:41.764Z,99455.25
2022-10-09T00:53:08.824Z,99452.72
2022-10-09T00:55:35.914Z,99455.31
2022-10-09T00:58:02.967Z,99448.34
2022-10-09T01:00:30.031Z,99451.06
2022-10-09T01:02:57.122Z,99451.97
2022-10-09T01:05:24.203Z,99451.06
2022-10-09T01:07:51.262Z,99445.84
2022-10-09T01:10:18.373Z,99447.63
2022-10-09T01:12:45.623Z,99446.78
2022-10-09T01:15:12.831Z,99445.94
2022-10-09T01:17:39.909Z,99445.13
2022-10-09T01:20:07.012Z,99446.84
2022-10-09T01:22:34.102Z,99446.03
2022-10-09T01:25:01.166Z,99445.94
2022-10-09T01:27:28.251Z,99436.44
2022-10-09T01:29:55.313Z,99434.72
2022-10-09T01:32:22.980Z,99444.34
2022-10-09T01:34:50.053Z,99443.41
2022-10-09T01:37:17.170Z,99431.34
2022-10-09T01:39:44.267Z,99427.09
2022-10-09T01:42:11.322Z,99430.53
2022-10-09T01:44:38.386Z,99438.31
2022-10-09T01:47:05.447Z,99432.28
2022-10-09T01:49:32.718Z,99427.09
2022-10-09T01:51:59.776Z,99420.19
2022-10-09T01:54:26.855Z,99423.66
2022-10-09T01:56:53.915Z,99427.16
2022-10-09T01:59:21.047Z,99427.16
2022-10-09T02:01:48.211Z,99424.56
2022-10-09T02:04:15.365Z,99423.72
2022-10-09T02:06:42.521Z,99418.63
2022-10-09T02:09:09.667Z,99412.50
2022-10-09T02:11:36.734Z,99407.41
2022-10-09T02:14:03.826Z,99409.13
2022-10-09T02:16:36.110Z,99410.00
2022-10-09T02:19:04.206Z,99410.00
2022-10-09T02:21:31.284Z,99401.34
2022-10-09T02:23:58.355Z,99409.13
2022-10-09T02:26:25.420Z,99409.25
2022-10-09T02:28:52.690Z,99408.41
2022-10-09T02:31:19.831Z,99405.81
2022-10-09T02:33:47.029Z,99404.97
2022-10-09T02:36:14.780Z,99406.75
2022-10-09T02:38:41.846Z,99407.56
2022-10-09T02:41:08.993Z,99406.75
2022-10-09T02:43:36.060Z,99404.22
2022-10-09T02:46:03.217Z,99406.75
2022-10-09T02:48:30.304Z,99408.50
2022-10-09T02:50:57.458Z,99401.63
2022-10-09T02:53:24.520Z,99408.50
2022-10-09T02:55:51.594Z,99406.81
2022-10-09T02:58:18.670Z,99400.88
2022-10-09T03:00:45.739Z,99403.47
2022-10-09T03:03:12.817Z,99402.66
2022-10-09T03:05:40.120Z,99407.84
2022-10-09T03:08:07.240Z,99404.38
2022-10-09T03:10:34.354Z,99414.78
2022-10-09T03:13:01.441Z,99415.72
2022-10-09T03:15:28.690Z,99412.41
2022-10-09T03:17:55.775Z,99414.06
2022-10-09T03:20:22.840Z,99419.25
2022-10-09T03:22:50.126Z,99414.13
2022-10-09T03:25:17.420Z,99413.28
2022-10-09T03:27:44.522Z,99419.31
2022-10-09T03:30:11.635Z,99421.09
2022-10-09T03:32:38.702Z,99417.66
2022-10-09T03:35:05.758Z,99421.09
2022-10-09T03:37:32.827Z,99422.03
2022-10-09T03:39:59.917Z,99415.16
2022-10-09T03:42:26.978Z,99417.75
2022-10-09T03:44:54.060Z,99416.94
2022-10-09T03:47:21.174Z,99422.88
2022-10-09T03:49:48.362Z,99416.00
2022-10-09T03:52:15.472Z,99418.69
2022-10-09T03:54:42.544Z,99417.84
2022-10-09T03:57:09.605Z,99428.16
2022-10-09T03:59:36.678Z,99426.50
2022-10-09T04:02:03.795Z,99420.44
2022-10-09T04:04:30.875Z,99422.19
2022-10-09T04:06:57.951Z,99422.19
2022-10-09T04:09:25.044Z,99412.75
2022-10-09T04:11:52.112Z,99417.94
2022-10-09T04:14:19.197Z,99419.59
2022-10-09T04:16:46.354Z,99417.94
2022-10-09T04:19:13.626Z,99417.19
2022-10-09T04:21:40.701Z,99418.03
2022-10-09T04:24:08.707Z,99412.84
2022-10-09T04:26:35.779Z,99417.28
2022-10-09T04:29:02.894Z,99411.25
2022-10-09T04:31:29.997Z,99414.56
2022-10-09T04:33:57.151Z,99416.34
2022-10-09T04:36:24.300Z,99412.91
2022-10-09T04:38:52.663Z,99405.13
2022-10-09T04:41:19.731Z,99407.81
2022-10-09T04:43:46.881Z,99411.34
2022-10-09T04:46:14.024Z,99411.34
2022-10-09T04:48:41.177Z,99405.28
2022-10-09T04:51:08.302Z,99413.09
2022-10-09T04:53:35.409Z,99406.22
2022-10-09T04:56:02.838Z,99413.09
2022-10-09T04:58:29.915Z,99412.25
2022-10-09T05:00:57.027Z,99413.09
2022-10-09T05:03:24.115Z,99412.25
2022-10-09T05:05:51.193Z,99415.78
2022-10-09T05:08:18.280Z,99410.66
2022-10-09T05:10:45.392Z,99420.19
2022-10-09T05:13:12.531Z,99417.59
2022-10-09T05:15:39.628Z,99421.06
2022-10-09T05:18:06.693Z,99421.06
2022-10-09T05:20:33.779Z,99425.34
2022-10-09T05:23:00.966Z,99421.97
2022-10-09T05:25:28.069Z,99423.72
2022-10-09T05:27:55.151Z,99427.97
2022-10-09T05:30:22.209Z,99428.09
2022-10-09T05:32:49.500Z,99429.75
2022-10-09T05:35:16.817Z,99433.28
2022-10-09T05:37:43.883Z,99435.97
2022-10-09T05:40:10.988Z,99436.72
2022-10-09T05:42:38.065Z,99438.47
2022-10-09T05:45:05.134Z,99438.59
2022-10-09T05:47:32.203Z,99442.91
2022-10-09T05:49:59.278Z,99443.78
2022-10-09T05:52:26.343Z,99442.91
2022-10-09T05:54:53.430Z,99446.44
2022-10-09T05:57:20.587Z,99443.84
2022-10-09T05:59:47.655Z,99448.22
2022-10-09T06:02:14.830Z,99439.59
2022-10-09T06:04:41.967Z,99439.59
2022-10-09T06:07:09.030Z,99440.41
2022-10-09T06:09:36.099Z,99441.34
2022-10-09T06:12:03.165Z,99440.41
2022-10-09T06:14:30.234Z,99446.56
2022-10-09T06:16:57.337Z,99446.56
2022-10-09T06:19:24.442Z,99443.03
2022-10-09T06:21:51.924Z,99432.72
2022-10-09T06:24:19.037Z,99438.81
2022-10-09T06:26:46.165Z,99442.19
2022-10-09T06:29:13.290Z,99446.56
2022-10-09T06:31:40.547Z,99441.41
2022-10-09T06:34:07.662Z,99447.47
2022-10-09T06:36:35.688Z,99444.94
2022-10-09T06:39:02.792Z,99449.22
2022-10-09T06:41:29.893Z,99447.56
2022-10-09T06:43:57.003Z,99448.47
2022-10-09T06:46:24.151Z,99444.94
2022-10-09T06:48:51.286Z,99441.41
2022-10-09T06:51:18.519Z,99450.16
2022-10-09T06:53:45.607Z,99447.56
2022-10-09T06:56:12.680Z,99447.56
2022-10-09T06:58:39.863Z,99444.94
2022-10-09T07:01:07.071Z,99443.19
2022-10-09T07:03:34.178Z,99444.13
2022-10-09T07:06:01.287Z,99443.28
2022-10-09T07:08:28.635Z,99446.72
2022-10-09T07:10:55.787Z,99452.84
2022-10-09T07:13:22.904Z,99452.00
2022-10-09T07:15:49.998Z,99441.53
2022-10-09T07:18:17.449Z,99442.34
2022-10-09T07:20:44.519Z,99452.00
2022-10-09T07:23:11.593Z,99445.06
2022-10-09T07:25:38.718Z,99449.41
2022-10-09T07:28:05.863Z,99446.72
2022-10-09T07:30:33.059Z,99446.72
2022-10-09T07:33:00.179Z,99451.09
2022-10-09T07:35:27.256Z,99452.75
2022-10-09T07:37:54.334Z,99452.75
2022-10-09T07:40:21.483Z,99454.41
2022-10-09T07:42:48.805Z,99456.94
2022-10-09T07:45:16.012Z,99457.78
2022-10-09T07:47:43.103Z,99447.38
2022-10-09T07:50:10.181Z,99449.16
2022-10-09T07:52:37.248Z,99447.47
2022-10-09T07:55:04.331Z,99446.56
2022-10-09T07:57:31.394Z,99443.13
2022-10-09T07:59:58.468Z,99442.09
2022-10-09T08:02:25.572Z,99440.25
2022-10-09T08:04:52.679Z,99438.47
2022-10-09T08:07:19.740Z,99434.94
2022-10-09T08:09:46.854Z,99432.34
2022-10-09T08:12:14.475Z,99435.78
2022-10-09T08:14:41.848Z,99434.81
2022-10-09T08:17:08.930Z,99432.16
2022-10-09T08:19:36.079Z,99425.19
2022-10-09T08:22:03.697Z,99423.41
2022-10-09T08:24:30.894Z,99419.88
2022-10-09T08:26:57.966Z,99418.88
2022-10-09T08:29:25.043Z,99423.97
2022-10-09T08:31:52.345Z,99417.00
2022-10-09T08:34:19.446Z,99404.84
2022-10-09T08:36:46.699Z,99408.19
2022-10-09T08:39:13.777Z,99407.25
2022-10-09T08:41:42.037Z,99395.94
2022-10-09T08:44:10.047Z,99399.41
2022-10-09T08:46:37.234Z,99403.56
2022-10-09T08:49:04.425Z,99398.34
2022-10-09T08:51:31.493Z,99399.19
2022-10-09T08:53:58.596Z,99397.44
2022-10-09T08:56:25.715Z,99393.16
2022-10-09T08:58:52.773Z,99390.50
2022-10-09T09:01:19.930Z,99384.34
2022-10-09T09:03:47.126Z,99384.34
2022-10-09T09:06:14.202Z,99375.63
2022-10-09T09:08:44.135Z,99370.41
2022-10-09T09:11:11.270Z,99370.41
2022-10-09T09:13:38.382Z,99370.34
2022-10-09T09:16:05.545Z,99368.56
2022-10-09T09:18:32.684Z,99367.63
2022-10-09T09:20:59.768Z,99373.69
2022-10-09T09:23:27.638Z,99378.81
2022-10-09T09:25:54.774Z,99365.81
2022-10-09T09:28:21.937Z,99367.47
2022-10-09T09:30:49.059Z,99364.94
2022-10-09T09:33:16.516Z,99368.41
2022-10-09T09:35:46.954Z,99366.63
2022-10-09T09:38:14.099Z,99360.59
2022-10-09T09:40:45.905Z,99358.00
2022-10-09T09:43:14.048Z,99364.09
2022-10-09T09:45:41.129Z,99356.31
2022-10-09T09:48:08.191Z,99349.34
2022-10-09T09:50:48.473Z,99353.63
2022-10-09T09:53:19.908Z,99341.47
2022-10-09T09:55:46.987Z,99351.88
2022-10-09T09:58:14.120Z,99351.88
2022-10-09T10:00:41.244Z,99351.03
2022-10-09T10:03:08.354Z,99350.09
2022-10-09T10:05:35.431Z,99350.09
2022-10-09T10:08:02.511Z,99344.06
2022-10-09T10:10:29.592Z,99334.50
2022-10-09T10:12:56.756Z,99330.13
2022-10-09T10:15:23.818Z,99330.13
2022-10-09T10:17:50.912Z,99326.59
2022-10-09T10:20:18.079Z,99325.75
2022-10-09T10:22:45.208Z,99317.97
2022-10-09T10:25:14.026Z,99316.19
2022-10-09T10:27:43.216Z,99313.59
2022-10-09T10:30:10.335Z,99312.69
2022-10-09T10:32:37.446Z,99314.47
2022-10-09T10:35:04.527Z,99307.47
2022-10-09T10:37:31.695Z,99305.78
2022-10-09T10:39:58.800Z,99290.19
2022-10-09T10:42:25.913Z,99297.09
2022-10-09T10:44:53.143Z,99291.06
2022-10-09T10:47:20.290Z,99283.16
2022-10-09T10:49:47.439Z,99277.13
2022-10-09T10:52:14.517Z,99281.47
2022-10-09T10:54:41.644Z,99281.38
2022-10-09T10:57:09.138Z,99280.53
2022-10-09T10:59:36.569Z,99271.09
2022-10-09T11:02:03.746Z,99271.91
2022-10-09T11:04:30.943Z,99269.31
2022-10-09T11:06:58.000Z,99263.19
2022-10-09T11:09:25.107Z,99264.00
2022-10-09T11:11:52.200Z,99253.59
2022-10-09T11:14:20.537Z,99251.00
2022-10-09T11:16:50.127Z,99251.00
2022-10-09T11:19:17.240Z,99252.69
2022-10-09T11:21:44.329Z,99247.50
2022-10-09T11:24:11.394Z,99236.25
2022-10-09T11:26:38.478Z,99236.16
2022-10-09T11:29:05.569Z,99232.72
2022-10-09T11:31:32.718Z,99230.13
2022-10-09T11:33:59.927Z,99229.31
2022-10-09T11:36:27.058Z,99224.94
2022-10-09T11:38:54.191Z,99221.38
2022-10-09T11:41:21.256Z,99216.19
2022-10-09T11:43:48.404Z,99210.06
2022-10-09T11:46:15.582Z,99198.81
2022-10-09T11:48:42.781Z,99200.47
2022-10-09T11:51:09.867Z,99194.38
2022-10-09T11:53:37.120Z,99196.97
2022-10-09T11:56:04.182Z,99186.56
2022-10-09T11:58:31.249Z,99189.16
2022-10-09T12:00:58.391Z,99190.00
2022-10-09T12:03:25.602Z,99180.44
2022-10-09T12:05:52.753Z,99184.81
2022-10-09T12:08:19.972Z,99177.84
2022-10-09T12:10:47.081Z,99167.44
2022-10-09T12:13:14.171Z,99171.69
2022-10-09T12:15:41.248Z,99168.16
2022-10-09T12:18:08.314Z,99162.13
2022-10-09T12:20:35.387Z,99153.50
2022-10-09T12:23:25.187Z,99152.53
2022-10-09T12:25:49.581Z,99151.72
2022-10-09T12:28:16.724Z,99151.72
2022-10-09T12:30:47.552Z,99139.47
2022-10-09T12:33:14.904Z,99137.69
2022-10-09T12:35:42.003Z,99126.47
2022-10-09T12:38:09.138Z,99128.13
2022-10-09T12:40:36.295Z,99124.59
2022-10-09T12:43:03.366Z,99123.75
2022-10-09T12:45:30.471Z,99119.38
2022-10-09T12:47:57.791Z,99115.00
2022-10-09T12:50:25.076Z,99112.41
2022-10-09T12:52:52.447Z,99106.28
2022-10-09T12:55:19.707Z,99104.59
2022-10-09T12:57:46.796Z,99101.09
2022-10-09T13:00:14.281Z,99097.56
2022-10-09T13:02:41.558Z,99094.94
2022-10-09T13:05:08.749Z,99091.53
2022-10-09T13:07:35.861Z,99083.72
2022-10-09T13:10:02.998Z,99081.00
2022-10-09T13:12:30.142Z,99082.78
2022-10-09T13:14:57.208Z,99078.53
2022-10-09T13:17:25.075Z,99063.75
2022-10-09T13:19:52.271Z,99068.94
2022-10-09T13:22:19.345Z,99061.97
2022-10-09T13:24:46.459Z,99067.19
2022-10-09T13:27:19.414Z,99055.84
2022-10-09T13:29:46.696Z,99052.41
2022-10-09T13:32:13.949Z,99055.75
2022-10-09T13:34:41.073Z,99055.75
2022-10-09T13:37:08.160Z,99060.13
2022-10-09T13:39:35.263Z,99054.91
2022-10-09T13:42:02.460Z,99052.13
2022-10-09T13:44:29.611Z,99053.97
2022-10-09T13:46:56.767Z,99052.22
2022-10-09T13:49:24.099Z,99041.81
2022-10-09T13:51:51.187Z,99042.63
2022-10-09T13:54:18.365Z,99037.44
2022-10-09T13:56:45.804Z,99029.63
2022-10-09T13:59:12.880Z,99028.78
2022-10-09T14:01:40.155Z,99023.59
2022-10-09T14:04:07.347Z,99024.44
2022-10-09T14:06:34.860Z,99021.75
2022-10-09T14:09:01.950Z,99016.53
2022-10-09T14:11:29.044Z,99019.13
2022-10-09T14:13:58.406Z,99011.34
2022-10-09T14:16:25.477Z,99005.38
2022-10-09T14:18:52.556Z,99009.75
2022-10-09T14:21:19.641Z,99002.72
2022-10-09T14:23:46.715Z,99003.53
2022-10-09T14:26:13.886Z,99002.28
2022-10-09T14:28:41.813Z,98992.81
2022-10-09T14:31:08.969Z,98997.00
2022-10-09T14:33:36.104Z,98992.63
2022-10-09T14:36:03.184Z,98996.13
2022-10-09T14:38:30.246Z,98990.94
2022-10-09T14:40:57.342Z,98997.00
2022-10-09T14:43:25.271Z,98986.59
2022-10-09T14:45:52.375Z,98987.41
2022-10-09T14:48:19.451Z,98979.63
2022-10-09T14:50:46.607Z,98987.31
2022-10-09T14:53:13.748Z,98981.28
2022-10-09T14:55:40.828Z,98980.31
2022-10-09T14:58:07.908Z,98990.66
2022-10-09T15:00:34.980Z,98975.13
2022-10-09T15:03:02.103Z,98974.22
2022-10-09T15:05:29.189Z,98977.63
2022-10-09T15:07:56.288Z,98975.94
2022-10-09T15:10:23.366Z,98973.25
2022-10-09T15:12:50.460Z,98968.06
2022-10-09T15:15:17.612Z,98965.47
2022-10-09T15:17:44.739Z,98969.84
2022-10-09T15:20:11.861Z,98966.28
2022-10-09T15:22:39.141Z,98966.16
2022-10-09T15:25:06.363Z,98962.75
2022-10-09T15:27:33.443Z,98961.09
2022-10-09T15:30:00.563Z,98954.94
2022-10-09T15:32:27.714Z,98952.34
2022-10-09T15:34:54.796Z,98948.91
2022-10-09T15:37:21.891Z,98945.47
2022-10-09T15:39:48.972Z,98946.31
2022-10-09T15:42:16.110Z,98942.75
2022-10-09T15:44:43.211Z,98936.84
2022-10-09T15:47:11.794Z,98942.88
2022-10-09T15:49:43.448Z,98941.09
2022-10-09T15:52:10.520Z,98947.13
2022-10-09T15:54:37.629Z,98934.13
2022-10-09T15:57:05.139Z,98938.50
2022-10-09T15:59:33.475Z,98941.94
2022-10-09T16:02:00.628Z,98941.94
2022-10-09T16:04:28.058Z,98936.84
2022-10-09T16:06:55.376Z,98935.06
2022-10-09T16:09:22.451Z,98939.44
2022-10-09T16:11:49.567Z,98933.41
2022-10-09T16:14:16.650Z,98935.19
2022-10-09T16:16:43.717Z,98942.88
2022-10-09T16:19:10.869Z,98939.44
2022-10-09T16:21:38.011Z,98931.72
2022-10-09T16:24:05.090Z,98941.31
2022-10-09T16:26:32.152Z,98937.88
2022-10-09T16:28:59.215Z,98931.84
2022-10-09T16:31:26.270Z,98935.41
2022-10-09T16:33:53.348Z,98931.03
2022-10-09T16:36:20.481Z,98931.09
2022-10-09T16:38:47.550Z,98938.06
2022-10-09T16:41:14.983Z,98932.06
2022-10-09T16:43:42.094Z,98930.28
2022-10-09T16:46:09.211Z,98933.81
2022-10-09T16:48:36.306Z,98935.59
2022-10-09T16:51:03.385Z,98935.59
2022-10-09T16:53:30.447Z,98941.63
2022-10-09T16:55:57.527Z,98938.19
2022-10-09T16:58:24.612Z,98946.09
2022-10-09T17:00:51.767Z,98948.69
2022-10-09T17:03:18.870Z,98946.09
2022-10-09T17:05:45.944Z,98945.38
2022-10-09T17:08:13.049Z,98937.56
2022-10-09T17:10:40.121Z,98939.34
2022-10-09T17:13:07.196Z,98939.34
2022-10-09T17:15:34.297Z,98934.13
2022-10-09T17:18:01.368Z,98934.13
2022-10-09T17:20:28.438Z,98930.81
2022-10-09T17:22:55.573Z,98934.22
2022-10-09T17:25:22.762Z,98923.81
2022-10-09T17:27:49.906Z,98922.16
2022-10-09T17:30:17.039Z,98936.00
2022-10-09T17:32:44.132Z,98929.97
2022-10-09T17:35:11.698Z,98928.31
2022-10-09T17:37:38.831Z,98928.31
2022-10-09T17:40:05.912Z,98923.19
2022-10-09T17:42:33.045Z,98924.06
2022-10-09T17:45:00.588Z,98931.00
2022-10-09T17:47:27.741Z,98930.16
2022-10-09T17:49:55.340Z,98923.19
2022-10-09T17:52:22.403Z,98929.34
2022-10-09T17:54:49.541Z,98926.75
2022-10-09T17:57:16.655Z,98926.84
2022-10-09T17:59:43.743Z,98921.66
2022-10-09T18:02:10.864Z,98925.09
2022-10-09T18:04:37.955Z,98923.44
2022-10-09T18:07:05.024Z,98919.06
2022-10-09T18:09:32.138Z,98915.63
2022-10-09T18:11:59.204Z,98920.84
2022-10-09T18:14:26.279Z,98917.38
2022-10-09T18:16:53.755Z,98913.94
2022-10-09T18:19:21.557Z,98911.34
2022-10-09T18:21:48.727Z,98911.47
2022-10-09T18:24:15.829Z,98909.69
2022-10-09T18:26:42.904Z,98907.09
2022-10-09T18:29:09.985Z,98902.81
2022-10-09T18:31:38.003Z,98897.63
2022-10-09T18:34:05.129Z,98899.41
2022-10-09T18:36:33.794Z,98899.41
2022-10-09T18:39:01.357Z,98889.91
2022-10-09T18:41:28.431Z,98895.97
2022-10-09T18:43:55.554Z,98887.31
2022-10-09T18:46:22.665Z,98881.28
2022-10-09T18:48:49.763Z,98878.69
2022-10-09T18:51:17.260Z,98885.66
2022-10-09T18:53:44.348Z,98878.69
2022-10-09T18:56:11.506Z,98884.84
2022-10-09T18:58:38.619Z,98877.03
2022-10-09T19:01:07.609Z,98871.81
2022-10-09T19:03:36.613Z,98871.00
2022-10-09T19:06:03.824Z,98875.38
2022-10-09T19:08:30.902Z,98874.53
2022-10-09T19:10:58.051Z,98871.94
2022-10-09T19:13:25.167Z,98876.28
2022-10-09T19:15:52.573Z,98868.50
2022-10-09T19:18:19.747Z,98869.34
2022-10-09T19:20:46.862Z,98865.06
2022-10-09T19:23:15.171Z,98867.66
2022-10-09T19:25:42.239Z,98864.22
2022-10-09T19:28:09.315Z,98862.56
2022-10-09T19:30:36.411Z,98860.81
2022-10-09T19:33:03.517Z,98853.00
2022-10-09T19:35:31.050Z,98854.66
2022-10-09T19:37:58.278Z,98850.41
2022-10-09T19:40:26.011Z,98849.56
2022-10-09T19:42:53.091Z,98842.72
2022-10-09T19:45:20.151Z,98841.03
2022-10-09T19:47:51.016Z,98836.69
2022-10-09T19:50:20.536Z,98836.69
2022-10-09T19:52:47.664Z,98841.03
2022-10-09T19:55:14.735Z,98839.28
2022-10-09T19:57:41.947Z,98838.44
2022-10-09T20:00:09.282Z,98835.00
2022-10-09T20:02:36.382Z,98832.41
2022-10-09T20:05:03.540Z,98830.75
2022-10-09T20:07:30.926Z,98838.56
2022-10-09T20:09:58.001Z,98835.13
2022-10-09T20:12:25.095Z,98828.97
2022-10-09T20:14:52.494Z,98833.34
2022-10-09T20:17:20.815Z,98836.91
2022-10-09T20:19:47.875Z,98832.53
2022-10-09T20:22:15.078Z,98829.09
2022-10-09T20:24:42.172Z,98831.69
2022-10-09T20:27:09.255Z,98830.88
2022-10-09T20:29:36.326Z,98832.63
2022-10-09T20:32:03.812Z,98828.28
2022-10-09T20:34:31.146Z,98827.41
2022-10-09T20:36:58.205Z,98823.91
2022-10-09T20:39:25.271Z,98821.38
2022-10-09T20:41:52.625Z,98819.63
2022-10-09T20:44:19.698Z,98811.00
2022-10-09T20:46:46.775Z,98811.94
2022-10-09T20:49:13.895Z,98819.72
2022-10-09T20:51:41.001Z,98811.94
2022-10-09T20:54:08.102Z,98811.09
2022-10-09T20:56:35.258Z,98817.13
2022-10-09T20:59:02.322Z,98805.91
2022-10-09T21:01:29.561Z,98804.13
2022-10-09T21:03:56.778Z,98802.47
2022-10-09T21:06:23.850Z,98800.72
2022-10-09T21:08:50.983Z,98798.09
2022-10-09T21:11:18.082Z,98793.72
2022-10-09T21:13:45.259Z,98790.31
2022-10-09T21:16:12.379Z,98794.69
2022-10-09T21:18:39.457Z,98786.88
2022-10-09T21:21:06.765Z,98779.16
2022-10-09T21:23:33.854Z,98780.84
2022-10-09T21:26:01.003Z,98789.47
2022-10-09T21:28:28.183Z,98786.88
2022-10-09T21:30:55.275Z,98775.75
2022-10-09T21:33:22.372Z,98782.59
2022-10-09T21:35:49.456Z,98784.38
2022-10-09T21:38:16.568Z,98785.19
2022-10-09T21:40:43.670Z,98783.47
2022-10-09T21:43:10.754Z,98784.38
2022-10-09T21:45:37.866Z,98786.97
2022-10-09T21:48:04.991Z,98786.97
2022-10-09T21:50:36.448Z,98789.56
2022-10-09T21:53:03.589Z,98788.75
2022-10-09T21:55:30.665Z,98779.28
2022-10-09T21:57:57.739Z,98782.72
2022-10-09T22:00:24.847Z,98781.06
2022-10-09T22:02:52.283Z,98785.31
2022-10-09T22:05:19.535Z,98784.50
2022-10-09T22:07:46.619Z,98783.66
2022-10-09T22:10:13.694Z,98780.13
2022-10-09T22:12:40.910Z,98777.63
2022-10-09T22:15:08.007Z,98776.81
2022-10-09T22:17:35.156Z,98777.63
2022-10-09T22:20:02.235Z,98776.81
2022-10-09T22:22:29.326Z,98784.50
2022-10-09T22:24:56.431Z,98777.50
2022-10-09T22:27:23.508Z,98775.03
2022-10-09T22:29:50.593Z,98775.84
2022-10-09T22:32:17.665Z,98774.22
2022-10-09T22:34:44.731Z,98771.59
2022-10-09T22:37:11.801Z,98776.81
2022-10-09T22:39:38.877Z,98765.56
2022-10-09T22:42:05.963Z,98760.47
2022-10-09T22:44:33.035Z,98757.88
2022-10-09T22:47:00.109Z,98760.47
2022-10-09T22:49:27.585Z,98756.09
2022-10-09T22:51:54.667Z,98758.81
2022-10-09T22:54:22.190Z,98762.25
2022-10-09T22:56:49.267Z,98758.81
2022-10-09T22:59:16.458Z,98756.22
2022-10-09T23:01:43.548Z,98753.63
2022-10-09T23:04:10.626Z,98758.81
2022-10-09T23:06:37.829Z,98756.22
2022-10-09T23:09:04.921Z,98757.13
2022-10-09T23:11:31.975Z,98763.06
2022-10-09T23:13:59.070Z,98764.72
2022-10-09T23:16:26.176Z,98759.72
2022-10-09T23:18:53.247Z,98757.13
2022-10-09T23:21:20.317Z,98758.91
2022-10-09T23:23:47.468Z,98748.50
2022-10-09T23:26:14.536Z,98748.50
2022-10-09T23:28:41.643Z,98757.13
2022-10-09T23:31:08.737Z,98750.28
2022-10-09T23:33:35.809Z,98757.25
2022-10-09T23:36:02.985Z,98753.81
2022-10-09T23:38:30.041Z,98749.44
2022-10-09T23:40:57.137Z,98750.28
2022-10-09T23:43:24.263Z,98739.06
2022-10-09T23:45:51.434Z,98744.38
2022-10-09T23:48:18.494Z,98740.84
2022-10-09T23:50:45.554Z,98741.66
2022-10-09T23:53:12.685Z,98741.66
2022-10-09T23:55:39.836Z,98734.81
2022-10-09T23:58:06.935Z,98737.41
